首页
METAR-TAF:

METAR-TAF

机场 :

阿克套, 哈萨克斯坦

纬度: 43-52-12N, 经度: 051-06E, 海拔: 22米

当前天气观测

该预报发布于29分钟前的01:30 UTC
风速10节,风向北转西北,在西北之间变化
温度 22°C
湿度 69%
气压 1012 hPa
能见度10公里或以上
散云层高于6000英尺, 积雨云.

METAR: UATE 310130Z 34005MPS 310V010 9999 SCT060CB 22/16 Q1012 R30/0///70 NOSIG RMK QFE757/1010

时间: 06:59 (01:59 UTC)

预报

该预报发布于2小时和50分钟前的23:09 UTC
预报有效从31日的 00点(UTC)到 31日的 24点(UTC)
风速10节,风向北转西北
能见度10公里或以上
散云层高于3300英尺, 积雨云.
成为
从 31日的 00点(UTC)到 31日的 02点(UTC)
风速12节,风向,有时为23节阵风
短暂存在
从 31日的 02点(UTC)到 31日的 08点(UTC)
多云层高于3000英尺, 积雨云.
雷暴, 小雨

TAF: UATE 302309Z 3100/3124 34005MPS 9999 SCT033CB TX30/3109Z TN18/3102Z BECMG 3100/3102 01006G12MPS TEMPO 3102/3108 -TSRA BKN030CB

超过4000个机场的气象观测和天气预报(METAR&TAF报告)。

可查询的气象台以黄色和红色小点在地图上表示。

将鼠标移到小点上方,可查看气象台名称。

然后点击查看天气观测和预报。

如需切换地图:点击带黑十字的绿色按钮放大地图;点击带横线的绿色按钮缩小地图;或者点击绿色箭头查看邻近地区的地图。


METAR-TAF: